Time;durP1;ratioP1;P1;durP2;ratioP2;P2;SDS_P1;SDS_P2;PMS_P1;PMS_P2;Temp;Humidity;BMP_temperature;BMP_pressure;BME280_temperature;BME280_humidity;BME280_pressure;Samples;Min_cycle;Max_cycle;Signal;HPM_P1;HPM_P2
2021/01/21 00:00:20;0.00;0.00;0.62;0.00;0.00;0.62;2.00;1.40;;;22.80;27.00;;;;;;2261950;61;20366;-63
2021/01/21 00:03:05;0.00;0.00;0.62;0.00;0.00;0.62;2.10;1.40;;;22.80;27.00;;;;;;2261646;61;20390;-63
2021/01/21 00:05:50;0.00;0.00;0.62;0.00;0.00;0.62;1.40;1.00;;;22.80;27.00;;;;;;2261333;61;20400;-64
2021/01/21 00:08:34;0.00;0.00;0.62;0.00;0.00;0.62;1.33;0.83;;;22.80;27.00;;;;;;2262160;61;20414;-63
2021/01/21 00:11:19;0.00;0.00;0.62;0.00;0.00;0.62;1.50;1.00;;;22.80;27.00;;;;;;2261732;61;20405;-63
2021/01/21 00:14:03;0.00;0.00;0.62;0.00;0.00;0.62;2.23;1.00;;;22.80;27.00;;;;;;2261528;61;20421;-64
2021/01/21 00:16:49;0.00;0.00;0.62;0.00;0.00;0.62;1.60;1.00;;;22.80;27.00;;;;;;2261991;61;20603;-64
2021/01/21 00:19:33;0.00;0.00;0.62;0.00;0.00;0.62;1.40;1.03;;;22.80;27.00;;;;;;2261668;61;20707;-64
2021/01/21 00:22:18;0.00;0.00;0.62;0.00;0.00;0.62;2.23;1.20;;;22.80;27.00;;;;;;2261645;61;20409;-64
2021/01/21 00:25:04;0.00;0.00;0.62;0.00;0.00;0.62;2.33;1.10;;;22.80;27.00;;;;;;2261673;61;20630;-63
2021/01/21 00:27:49;0.00;0.00;0.62;0.00;0.00;0.62;1.67;0.90;;;22.80;27.00;;;;;;2261597;61;20429;-63
2021/01/21 00:30:33;0.00;0.00;0.62;0.00;0.00;0.62;3.20;1.30;;;22.80;27.50;;;;;;2261809;61;20435;-62
2021/01/21 00:33:19;0.00;0.00;0.62;0.00;0.00;0.62;2.10;1.10;;;22.80;27.00;;;;;;2261681;61;20428;-62
2021/01/21 00:36:04;0.00;0.00;0.62;0.00;0.00;0.62;3.60;1.40;;;22.80;26.10;;;;;;2261030;61;20708;-62
2021/01/21 00:38:49;0.00;0.00;0.62;0.00;0.00;0.62;2.30;1.67;;;22.80;25.60;;;;;;2262009;61;20401;-62
2021/01/21 00:41:34;0.00;0.00;0.62;0.00;0.00;0.62;2.80;1.40;;;22.80;24.90;;;;;;2261448;61;20413;-61
2021/01/21 00:44:19;0.00;0.00;0.62;0.00;0.00;0.62;2.60;1.80;;;22.70;24.40;;;;;;2261402;61;20358;-62
2021/01/21 00:47:03;0.00;0.00;0.62;0.00;0.00;0.62;3.03;2.00;;;22.70;24.00;;;;;;2261614;61;20425;-62
2021/01/21 00:49:49;0.00;0.00;0.62;0.00;0.00;0.62;3.43;1.70;;;22.60;23.80;;;;;;2261332;61;20691;-62
2021/01/21 00:52:34;0.00;0.00;0.62;0.00;0.00;0.62;1.73;1.40;;;22.50;23.80;;;;;;2261479;61;20370;-61
2021/01/21 00:55:18;0.00;0.00;0.62;0.00;0.00;0.62;4.70;2.00;;;22.50;23.90;;;;;;2261280;61;20443;-61
2021/01/21 00:58:03;0.00;0.00;0.62;0.00;0.00;0.62;2.37;1.80;;;22.40;23.90;;;;;;2261327;61;20382;-62
2021/01/21 01:00:47;0.00;0.00;0.62;0.00;0.00;0.62;3.70;2.13;;;22.30;23.80;;;;;;2261400;61;20374;-61
2021/01/21 01:03:35;0.00;0.00;0.62;0.00;0.00;0.62;2.80;1.83;;;22.30;23.80;;;;;;2261106;61;20934;-61
2021/01/21 01:06:21;0.00;0.00;0.62;0.00;0.00;0.62;3.40;1.50;;;22.30;23.80;;;;;;2261343;61;20378;-62
2021/01/21 01:09:05;0.00;0.00;0.62;0.00;0.00;0.62;3.40;1.83;;;22.20;23.80;;;;;;2261586;61;20366;-62
2021/01/21 01:11:52;0.00;0.00;0.62;0.00;0.00;0.62;3.00;1.83;;;22.20;23.80;;;;;;2261448;61;20375;-62
2021/01/21 01:14:37;0.00;0.00;0.62;0.00;0.00;0.62;2.60;1.87;;;22.10;23.90;;;;;;2261799;61;20433;-62
2021/01/21 01:17:22;0.00;0.00;0.62;0.00;0.00;0.62;2.77;1.90;;;22.10;23.90;;;;;;2261480;61;20629;-62
2021/01/21 01:20:10;0.00;0.00;0.62;0.00;0.00;0.62;3.37;2.10;;;22.10;23.80;;;;;;2260680;61;20386;-62
2021/01/21 01:22:57;0.00;0.00;0.62;0.00;0.00;0.62;3.13;1.90;;;22.00;23.80;;;;;;2261603;61;20355;-61
2021/01/21 01:25:43;0.00;0.00;0.62;0.00;0.00;0.62;2.33;1.70;;;22.00;23.50;;;;;;2261115;61;20485;-62
2021/01/21 01:28:27;0.00;0.00;0.62;0.00;0.00;0.62;4.40;2.00;;;22.00;23.40;;;;;;2261001;61;20362;-62
2021/01/21 01:31:12;0.00;0.00;0.62;0.00;0.00;0.62;2.50;1.70;;;22.00;23.40;;;;;;2261413;61;20410;-62
2021/01/21 01:33:59;0.00;0.00;0.62;0.00;0.00;0.62;2.73;1.70;;;21.90;23.50;;;;;;2260967;61;20433;-62
2021/01/21 01:36:44;0.00;0.00;0.62;0.00;0.00;0.62;2.90;1.77;;;21.90;23.60;;;;;;2261353;61;20458;-62
2021/01/21 01:39:30;0.00;0.00;0.62;0.00;0.00;0.62;3.53;1.97;;;21.80;23.50;;;;;;2261379;61;20438;-62
2021/01/21 01:42:23;0.00;0.00;0.62;0.00;0.00;0.62;2.90;1.73;;;21.80;23.50;;;;;;2260838;61;20598;-62
2021/01/21 01:45:12;0.00;0.00;0.62;0.00;0.00;0.62;3.73;1.77;;;21.70;23.40;;;;;;2261432;61;20396;-62
2021/01/21 01:47:59;0.00;0.00;0.62;0.00;0.00;0.62;2.00;1.47;;;21.70;23.40;;;;;;2260948;61;20610;-62
2021/01/21 01:51:05;0.00;0.00;0.62;0.00;0.00;0.62;3.03;2.00;;;21.70;23.50;;;;;;2261393;61;20708;-62
2021/01/21 01:53:54;0.00;0.00;0.62;0.00;0.00;0.62;2.83;1.93;;;21.60;23.50;;;;;;2260880;61;20468;-63
2021/01/21 01:56:45;0.00;0.00;0.62;0.00;0.00;0.62;3.03;1.80;;;21.60;23.50;;;;;;2260875;61;20410;-61
2021/01/21 01:59:36;0.00;0.00;0.62;0.00;0.00;0.62;3.13;1.40;;;21.60;23.60;;;;;;2261301;61;20378;-61
2021/01/21 02:02:21;0.00;0.00;0.62;0.00;0.00;0.62;2.43;1.60;;;21.50;23.60;;;;;;2260914;61;20386;-62
2021/01/21 02:05:10;0.00;0.00;0.62;0.00;0.00;0.62;3.40;1.77;;;21.50;23.70;;;;;;2260881;61;20444;-62
2021/01/21 02:07:58;0.00;0.00;0.62;0.00;0.00;0.62;2.77;1.63;;;21.50;23.60;;;;;;2261260;61;20382;-61
2021/01/21 02:10:46;0.00;0.00;0.62;0.00;0.00;0.62;3.20;1.50;;;21.50;23.70;;;;;;2261491;61;20362;-62
2021/01/21 02:13:52;0.00;0.00;0.62;0.00;0.00;0.62;2.90;1.70;;;21.50;23.70;;;;;;2261374;61;20382;-61
2021/01/21 02:16:51;0.00;0.00;0.62;0.00;0.00;0.62;2.57;1.77;;;21.40;23.70;;;;;;2260923;61;20505;-62
2021/01/21 02:20:34;0.00;0.00;0.62;0.00;0.00;0.62;2.93;1.67;;;21.40;23.60;;;;;;2260698;61;20706;-61
2021/01/21 02:23:59;0.00;0.00;0.62;0.00;0.00;0.62;2.60;1.53;;;21.40;23.60;;;;;;2260883;61;20433;-62
2021/01/21 02:26:55;0.00;0.00;0.62;0.00;0.00;0.62;3.40;1.70;;;21.40;24.10;;;;;;2260775;61;20429;-61
2021/01/21 02:29:42;0.00;0.00;0.62;0.00;0.00;0.62;3.20;1.97;;;21.40;23.70;;;;;;2261288;61;20401;-62
2021/01/21 02:32:53;0.00;0.00;0.62;0.00;0.00;0.62;3.60;1.87;;;21.40;23.70;;;;;;2260904;61;20409;-62
2021/01/21 02:35:47;0.00;0.00;0.62;0.00;0.00;0.62;3.80;1.73;;;21.30;23.60;;;;;;2261054;61;20359;-62
2021/01/21 02:38:35;0.00;0.00;0.62;0.00;0.00;0.62;3.30;1.60;;;21.30;23.70;;;;;;2260845;61;20375;-61
2021/01/21 02:41:20;0.00;0.00;0.62;0.00;0.00;0.62;4.03;1.80;;;21.30;24.20;;;;;;2260902;61;20409;-62
2021/01/21 02:44:05;0.00;0.00;0.62;0.00;0.00;0.62;2.30;1.70;;;21.30;23.70;;;;;;2261466;61;20403;-61
2021/01/21 02:46:50;0.00;0.00;0.62;0.00;0.00;0.62;2.10;1.50;;;21.30;23.70;;;;;;2261254;61;20414;-61
2021/01/21 02:49:36;0.00;0.00;0.62;0.00;0.00;0.62;2.47;1.90;;;21.30;23.60;;;;;;2260897;61;20355;-61
2021/01/21 02:52:32;0.00;0.00;0.62;0.00;0.00;0.62;3.87;1.90;;;21.20;23.60;;;;;;2261496;61;20460;-61
2021/01/21 02:55:22;0.00;0.00;0.62;0.00;0.00;0.62;3.00;1.23;;;21.20;24.10;;;;;;2261086;61;20394;-61
2021/01/21 02:58:23;0.00;0.00;0.62;0.00;0.00;0.62;3.20;1.70;;;21.20;24.10;;;;;;2261150;61;20382;-62
2021/01/21 03:01:09;0.00;0.00;0.62;0.00;0.00;0.62;3.70;1.77;;;21.20;23.50;;;;;;2260791;61;20366;-62
2021/01/21 03:03:55;0.00;0.00;0.62;0.00;0.00;0.62;2.23;1.40;;;21.20;23.50;;;;;;2260341;61;20378;-61
2021/01/21 03:06:42;0.00;0.00;0.62;0.00;0.00;0.62;2.17;1.47;;;21.20;23.50;;;;;;2261514;61;20386;-62
2021/01/21 03:09:44;0.00;0.00;0.62;0.00;0.00;0.62;2.13;1.43;;;21.20;23.50;;;;;;2260856;61;20362;-61
2021/01/21 03:12:29;0.00;0.00;0.62;0.00;0.00;0.62;1.90;1.20;;;21.20;23.50;;;;;;2260930;61;20694;-62
2021/01/21 03:15:24;0.00;0.00;0.62;0.00;0.00;0.62;4.93;1.60;;;21.20;23.40;;;;;;2260812;61;20386;-60
2021/01/21 03:18:20;0.00;0.00;0.62;0.00;0.00;0.62;2.40;1.53;;;21.20;23.30;;;;;;2260526;61;20467;-61
2021/01/21 03:21:05;0.00;0.00;0.62;0.00;0.00;0.62;2.00;1.40;;;21.20;23.40;;;;;;2260944;61;20354;-62
2021/01/21 03:23:56;0.00;0.00;0.62;0.00;0.00;0.62;2.30;1.70;;;21.20;23.40;;;;;;2260745;61;20370;-62
2021/01/21 03:26:51;0.00;0.00;0.62;0.00;0.00;0.62;2.00;1.40;;;21.10;23.30;;;;;;2260425;61;20378;-62
2021/01/21 03:29:38;0.00;0.00;0.62;0.00;0.00;0.62;2.83;1.30;;;21.10;23.30;;;;;;2261537;61;20444;-59
2021/01/21 03:32:24;0.00;0.00;0.62;0.00;0.00;0.62;2.97;1.70;;;21.10;23.20;;;;;;2261064;61;20366;-62
2021/01/21 03:35:15;0.00;0.00;0.62;0.00;0.00;0.62;2.07;1.50;;;21.10;23.10;;;;;;2258522;61;20394;-62
2021/01/21 03:38:01;0.00;0.00;0.62;0.00;0.00;0.62;2.17;1.30;;;21.10;23.10;;;;;;2260833;61;20382;-62
2021/01/21 03:40:47;0.00;0.00;0.62;0.00;0.00;0.62;2.40;1.30;;;21.10;23.10;;;;;;2257517;61;20395;-62
2021/01/21 03:43:32;0.00;0.00;0.62;0.00;0.00;0.62;2.07;1.40;;;21.10;23.10;;;;;;2261394;61;20413;-62
2021/01/21 03:46:40;0.00;0.00;0.62;0.00;0.00;0.62;2.70;1.53;;;21.00;23.00;;;;;;2261164;61;20540;-62
2021/01/21 03:49:29;0.00;0.00;0.62;0.00;0.00;0.62;2.53;1.53;;;21.10;23.10;;;;;;2260487;61;20781;-62
2021/01/21 03:52:19;0.00;0.00;0.62;0.00;0.00;0.62;2.53;1.40;;;21.00;23.00;;;;;;2261233;61;20354;-62
2021/01/21 03:55:17;0.00;0.00;0.62;0.00;0.00;0.62;2.13;1.67;;;21.00;23.00;;;;;;2260361;61;20433;-62
2021/01/21 03:58:07;0.00;0.00;0.62;0.00;0.00;0.62;2.27;1.60;;;21.00;23.00;;;;;;2261112;61;20382;-62
2021/01/21 04:01:08;0.00;0.00;0.62;0.00;0.00;0.62;2.20;1.20;;;21.00;23.10;;;;;;2260486;61;20359;-62
2021/01/21 04:03:53;0.00;0.00;0.62;0.00;0.00;0.62;2.13;1.40;;;21.00;23.00;;;;;;2260361;61;20371;-60
2021/01/21 04:06:41;0.00;0.00;0.62;0.00;0.00;0.62;2.40;1.60;;;21.00;23.00;;;;;;2261010;61;20401;-62
2021/01/21 04:09:30;0.00;0.00;0.62;0.00;0.00;0.62;2.70;1.30;;;20.90;22.90;;;;;;2260334;61;20354;-62
2021/01/21 04:12:44;0.00;0.00;0.62;0.00;0.00;0.62;1.90;1.43;;;21.00;23.00;;;;;;2260768;61;20810;-62
2021/01/21 04:15:29;0.00;0.00;0.62;0.00;0.00;0.62;2.27;1.20;;;21.00;23.00;;;;;;2260863;61;20629;-61
2021/01/21 04:18:14;0.00;0.00;0.62;0.00;0.00;0.62;6.00;1.67;;;20.90;23.50;;;;;;2261075;61;20765;-62
2021/01/21 04:21:19;0.00;0.00;0.62;0.00;0.00;0.62;2.27;1.43;;;20.90;22.90;;;;;;2261596;61;20401;-61
2021/01/21 04:24:07;0.00;0.00;0.62;0.00;0.00;0.62;2.67;1.40;;;20.90;22.90;;;;;;2261414;61;20421;-62
2021/01/21 04:26:58;0.00;0.00;0.62;0.00;0.00;0.62;2.43;1.70;;;20.90;22.90;;;;;;2261724;61;20593;-62
2021/01/21 04:29:55;0.00;0.00;0.62;0.00;0.00;0.62;1.77;1.10;;;20.90;22.90;;;;;;2261184;61;20358;-61
2021/01/21 04:32:40;0.00;0.00;0.62;0.00;0.00;0.62;4.00;1.00;;;20.90;22.90;;;;;;2260991;61;20397;-62
2021/01/21 04:35:29;0.00;0.00;0.62;0.00;0.00;0.62;3.93;1.53;;;20.90;23.00;;;;;;2261616;61;20394;-62
2021/01/21 04:38:14;0.00;0.00;0.62;0.00;0.00;0.62;2.50;1.00;;;20.90;23.00;;;;;;2261194;61;20389;-62
2021/01/21 04:41:13;0.00;0.00;0.62;0.00;0.00;0.62;1.80;1.50;;;20.90;23.00;;;;;;2260978;61;20455;-60
2021/01/21 04:44:16;0.00;0.00;0.62;0.00;0.00;0.62;2.77;1.47;;;20.90;23.00;;;;;;2261065;61;20397;-62
2021/01/21 04:47:16;0.00;0.00;0.62;0.00;0.00;0.62;2.30;1.37;;;20.90;23.00;;;;;;2261018;61;20600;-62
2021/01/21 04:50:21;0.00;0.00;0.62;0.00;0.00;0.62;3.83;1.50;;;20.80;22.90;;;;;;2261206;61;20385;-60
2021/01/21 04:53:24;0.00;0.00;0.62;0.00;0.00;0.62;2.30;1.40;;;20.80;22.90;;;;;;2261239;61;20358;-61
2021/01/21 04:56:33;0.00;0.00;0.62;0.00;0.00;0.62;2.97;1.20;;;20.80;22.90;;;;;;2261601;61;20367;-62
2021/01/21 04:59:40;0.00;0.00;0.62;0.00;0.00;0.62;2.60;1.30;;;20.80;22.90;;;;;;2261552;61;20366;-61
2021/01/21 05:02:28;0.00;0.00;0.62;0.00;0.00;0.62;2.43;1.67;;;20.80;22.90;;;;;;2258525;61;20405;-62
2021/01/21 05:05:37;0.00;0.00;0.62;0.00;0.00;0.62;2.07;1.40;;;20.80;22.80;;;;;;2261954;61;20382;-62
2021/01/21 05:08:23;0.00;0.00;0.62;0.00;0.00;0.62;1.60;1.10;;;20.80;22.80;;;;;;2261340;61;20387;-62
2021/01/21 05:11:32;0.00;0.00;0.62;0.00;0.00;0.62;2.70;1.17;;;20.80;22.70;;;;;;2261386;61;20374;-62
2021/01/21 05:14:46;0.00;0.00;0.62;0.00;0.00;0.62;2.80;1.80;;;20.80;22.60;;;;;;2261397;61;20425;-62
2021/01/21 05:17:50;0.00;0.00;0.62;0.00;0.00;0.62;2.87;1.43;;;20.80;22.60;;;;;;2261359;61;20390;-62
2021/01/21 05:21:04;0.00;0.00;0.62;0.00;0.00;0.62;1.90;1.17;;;20.80;22.70;;;;;;2260903;61;20893;-62
2021/01/21 05:24:26;0.00;0.00;0.62;0.00;0.00;0.62;2.80;1.70;;;20.80;22.60;;;;;;2261237;61;20362;-61
2021/01/21 05:27:35;0.00;0.00;0.62;0.00;0.00;0.62;3.83;1.43;;;20.80;22.50;;;;;;2261635;61;20885;-62
2021/01/21 05:30:29;0.00;0.00;0.62;0.00;0.00;0.62;6.30;1.67;;;20.80;22.50;;;;;;2261116;61;20422;-62
2021/01/21 05:33:15;0.00;0.00;0.62;0.00;0.00;0.62;4.13;1.33;;;20.80;22.60;;;;;;2261544;61;20354;-62
2021/01/21 05:36:12;0.00;0.00;0.62;0.00;0.00;0.62;2.00;1.30;;;20.80;22.50;;;;;;2261093;61;20446;-62
2021/01/21 05:39:08;0.00;0.00;0.62;0.00;0.00;0.62;3.83;1.50;;;20.80;22.50;;;;;;2260831;61;20385;-62
2021/01/21 05:42:29;0.00;0.00;0.62;0.00;0.00;0.62;3.83;1.47;;;20.80;22.40;;;;;;2244935;61;20599;-61
2021/01/21 05:45:31;0.00;0.00;0.62;0.00;0.00;0.62;2.07;1.47;;;20.80;22.50;;;;;;2260355;61;20366;-61
2021/01/21 05:48:22;0.00;0.00;0.62;0.00;0.00;0.62;2.20;1.40;;;20.70;22.40;;;;;;2261354;61;20379;-62
2021/01/21 05:51:09;0.00;0.00;0.62;0.00;0.00;0.62;1.70;1.20;;;20.70;22.40;;;;;;2261052;61;20628;-62
2021/01/21 05:53:55;0.00;0.00;0.62;0.00;0.00;0.62;2.23;1.20;;;20.70;22.40;;;;;;2260717;61;20414;-62
2021/01/21 05:57:06;0.00;0.00;0.62;0.00;0.00;0.62;3.60;2.03;;;20.70;22.40;;;;;;2261289;61;20757;-62
2021/01/21 05:59:54;0.00;0.00;0.62;0.00;0.00;0.62;3.50;1.23;;;20.70;22.50;;;;;;2261313;61;20366;-62
2021/01/21 06:03:00;0.00;0.00;0.62;0.00;0.00;0.62;1.80;1.07;;;20.70;22.50;;;;;;2261471;61;20390;-62
2021/01/21 06:06:06;0.00;0.00;0.62;0.00;0.00;0.62;3.20;1.93;;;20.70;22.50;;;;;;2260686;61;20366;-61
2021/01/21 06:08:51;0.00;0.00;0.62;0.00;0.00;0.62;2.53;1.30;;;20.70;22.50;;;;;;2260924;61;20429;-61
2021/01/21 06:11:40;0.00;0.00;0.62;0.00;0.00;0.62;1.97;1.37;;;20.70;22.50;;;;;;2261336;61;20366;-63
2021/01/21 06:14:25;0.00;0.00;0.62;0.00;0.00;0.62;2.97;1.87;;;20.70;22.50;;;;;;2261191;61;20618;-61
2021/01/21 06:17:11;0.00;0.00;0.62;0.00;0.00;0.62;4.20;2.10;;;20.70;22.60;;;;;;2261023;61;20421;-59
2021/01/21 06:20:17;0.00;0.00;0.62;0.00;0.00;0.62;1.90;1.40;;;20.70;22.70;;;;;;2258683;61;20694;-58
2021/01/21 06:23:04;0.00;0.00;0.62;0.00;0.00;0.62;2.63;1.33;;;20.70;22.50;;;;;;2260581;61;20734;-58
2021/01/21 06:25:54;0.00;0.00;0.62;0.00;0.00;0.62;3.60;1.63;;;20.70;22.40;;;;;;2261284;61;20362;-59
2021/01/21 06:28:43;0.00;0.00;0.62;0.00;0.00;0.62;2.23;1.47;;;20.60;22.40;;;;;;2261326;61;20428;-61
2021/01/21 06:31:31;0.00;0.00;0.62;0.00;0.00;0.62;2.10;1.20;;;20.60;22.60;;;;;;2261164;61;20581;-57
2021/01/21 06:34:22;0.00;0.00;0.62;0.00;0.00;0.62;2.30;1.50;;;20.60;22.60;;;;;;2261542;61;20686;-57
2021/01/21 06:37:14;0.00;0.00;0.62;0.00;0.00;0.62;1.90;1.43;;;20.60;22.60;;;;;;2261293;61;20491;-59
2021/01/21 06:40:07;0.00;0.00;0.62;0.00;0.00;0.62;3.53;1.27;;;20.60;22.60;;;;;;2261290;61;20363;-58
2021/01/21 06:43:05;0.00;0.00;0.62;0.00;0.00;0.62;2.37;1.53;;;20.60;22.60;;;;;;2261144;61;20774;-58
2021/01/21 06:45:50;0.00;0.00;0.62;0.00;0.00;0.62;1.47;1.13;;;20.60;22.60;;;;;;2261201;61;20546;-61
2021/01/21 06:48:35;0.00;0.00;0.62;0.00;0.00;0.62;2.27;1.40;;;20.60;22.60;;;;;;2261383;61;20564;-61
2021/01/21 06:51:22;0.00;0.00;0.62;0.00;0.00;0.62;3.27;1.60;;;20.60;22.70;;;;;;2261184;61;20750;-61
2021/01/21 06:54:09;0.00;0.00;0.62;0.00;0.00;0.62;3.40;2.07;;;20.60;22.70;;;;;;2261065;61;20385;-61
2021/01/21 06:56:53;0.00;0.00;0.62;0.00;0.00;0.62;3.57;1.70;;;20.60;22.70;;;;;;2261414;61;20459;-60
2021/01/21 06:59:51;0.00;0.00;0.62;0.00;0.00;0.62;3.20;2.10;;;20.60;22.70;;;;;;2261104;61;20571;-60
2021/01/21 07:02:44;0.00;0.00;0.62;0.00;0.00;0.62;2.50;2.00;;;20.60;22.70;;;;;;2261530;61;20378;-61
2021/01/21 07:05:29;0.00;0.00;0.62;0.00;0.00;0.62;4.23;1.63;;;20.60;23.30;;;;;;2261004;61;20362;-62
2021/01/21 07:08:15;0.00;0.00;0.62;0.00;0.00;0.62;2.63;1.20;;;20.60;22.80;;;;;;2261081;61;20494;-61
2021/01/21 07:11:01;0.00;0.00;0.62;0.00;0.00;0.62;2.80;1.83;;;20.60;22.80;;;;;;2261028;61;20366;-59
2021/01/21 07:13:46;0.00;0.00;0.62;0.00;0.00;0.62;1.97;1.57;;;20.60;22.80;;;;;;2261217;61;20417;-61
2021/01/21 07:16:33;0.00;0.00;0.62;0.00;0.00;0.62;3.47;1.50;;;20.60;22.90;;;;;;2261044;61;20505;-62
2021/01/21 07:19:33;0.00;0.00;0.62;0.00;0.00;0.62;3.27;1.83;;;20.60;22.90;;;;;;2260937;61;20430;-62
2021/01/21 07:22:20;0.00;0.00;0.62;0.00;0.00;0.62;2.83;1.70;;;20.60;22.90;;;;;;2261103;61;20366;-61
2021/01/21 07:25:08;0.00;0.00;0.62;0.00;0.00;0.62;11.33;2.03;;;20.60;22.90;;;;;;2261477;61;20459;-61
2021/01/21 07:27:54;0.00;0.00;0.62;0.00;0.00;0.62;8.93;2.60;;;20.60;22.90;;;;;;2261319;61;20405;-59
2021/01/21 07:30:39;0.00;0.00;0.62;0.00;0.00;0.62;4.90;2.93;;;20.60;22.90;;;;;;2260930;61;20378;-60
2021/01/21 07:33:26;0.00;0.00;0.62;0.00;0.00;0.62;4.77;2.77;;;20.60;22.80;;;;;;2261385;61;20567;-61
2021/01/21 07:36:29;0.00;0.00;0.62;0.00;0.00;0.62;2.60;1.70;;;20.60;22.90;;;;;;2261386;61;20358;-61
2021/01/21 07:39:14;0.00;0.00;0.62;0.00;0.00;0.62;3.13;1.67;;;20.60;23.00;;;;;;2260996;61;20362;-60
2021/01/21 07:42:00;0.00;0.00;0.62;0.00;0.00;0.62;3.20;1.70;;;20.60;23.00;;;;;;2261381;61;20370;-59
2021/01/21 07:44:57;0.00;0.00;0.62;0.00;0.00;0.62;1.83;1.03;;;20.60;23.10;;;;;;2261037;61;20517;-58
2021/01/21 07:47:43;0.00;0.00;0.62;0.00;0.00;0.62;3.33;1.40;;;20.60;23.20;;;;;;2261407;61;20433;-61
2021/01/21 07:50:36;0.00;0.00;0.62;0.00;0.00;0.62;2.23;1.43;;;20.60;23.10;;;;;;2261460;61;20362;-61
2021/01/21 07:53:26;0.00;0.00;0.62;0.00;0.00;0.62;2.33;1.67;;;20.60;23.20;;;;;;2261569;61;20639;-52
2021/01/21 07:56:11;0.00;0.00;0.62;0.00;0.00;0.62;2.13;1.37;;;20.60;23.30;;;;;;2262049;61;20361;-60
2021/01/21 07:59:00;0.00;0.00;0.62;0.00;0.00;0.62;3.30;1.33;;;20.60;23.40;;;;;;2261734;61;20366;-56
2021/01/21 08:01:56;0.00;0.00;0.62;0.00;0.00;0.62;2.67;1.33;;;20.60;23.50;;;;;;2262062;61;20440;-59
2021/01/21 08:04:59;0.00;0.00;0.62;0.00;0.00;0.62;2.33;1.17;;;20.60;23.60;;;;;;2262128;61;20670;-60
2021/01/21 08:07:46;0.00;0.00;0.62;0.00;0.00;0.62;2.13;1.40;;;20.60;23.70;;;;;;2261369;61;20381;-57
2021/01/21 08:10:33;0.00;0.00;0.62;0.00;0.00;0.62;1.87;1.00;;;20.70;23.90;;;;;;2262113;61;20358;-53
2021/01/21 08:13:18;0.00;0.00;0.62;0.00;0.00;0.62;2.30;1.20;;;20.70;24.00;;;;;;2261756;61;20707;-53
2021/01/21 08:16:05;0.00;0.00;0.62;0.00;0.00;0.62;2.80;1.63;;;20.70;24.00;;;;;;2261785;61;20734;-51
2021/01/21 08:19:00;0.00;0.00;0.62;0.00;0.00;0.62;2.23;1.30;;;20.70;24.10;;;;;;2261863;61;20579;-56
2021/01/21 08:21:45;0.00;0.00;0.62;0.00;0.00;0.62;1.50;1.00;;;20.80;24.10;;;;;;2262496;61;20405;-57
2021/01/21 08:24:30;0.00;0.00;0.62;0.00;0.00;0.62;2.37;1.10;;;20.80;24.10;;;;;;2264646;61;20401;-58
2021/01/21 08:27:14;0.00;0.00;0.62;0.00;0.00;0.62;1.80;1.20;;;20.80;24.20;;;;;;2261628;61;20432;-60
2021/01/21 08:30:20;0.00;0.00;0.62;0.00;0.00;0.62;2.13;1.00;;;20.80;24.20;;;;;;2257574;61;20491;-60
2021/01/21 08:33:11;0.00;0.00;0.62;0.00;0.00;0.62;2.00;1.07;;;20.80;24.30;;;;;;2257929;61;20367;-60
2021/01/21 08:36:00;0.00;0.00;0.62;0.00;0.00;0.62;1.80;0.90;;;20.90;24.40;;;;;;2257535;61;20363;-59
2021/01/21 08:38:46;0.00;0.00;0.62;0.00;0.00;0.62;1.50;1.00;;;20.80;24.40;;;;;;2261682;61;20351;-59
2021/01/21 08:41:32;0.00;0.00;0.62;0.00;0.00;0.62;2.20;0.97;;;20.90;24.40;;;;;;2261530;61;20454;-55
2021/01/21 08:44:17;0.00;0.00;0.62;0.00;0.00;0.62;1.63;0.90;;;20.90;24.40;;;;;;2261155;61;20362;-58
2021/01/21 08:47:03;0.00;0.00;0.62;0.00;0.00;0.62;1.77;1.20;;;20.90;24.40;;;;;;2262304;61;20705;-59
2021/01/21 08:49:52;0.00;0.00;0.62;0.00;0.00;0.62;1.70;1.10;;;21.00;24.50;;;;;;2261750;61;20625;-62
2021/01/21 08:52:54;0.00;0.00;0.62;0.00;0.00;0.62;2.50;1.10;;;21.00;24.60;;;;;;2261345;61;20715;-61
2021/01/21 08:55:43;0.00;0.00;0.62;0.00;0.00;0.62;1.50;0.90;;;21.00;24.60;;;;;;2261752;61;20448;-59
2021/01/21 08:58:29;0.00;0.00;0.62;0.00;0.00;0.62;1.43;0.90;;;21.10;24.70;;;;;;2261500;61;20379;-59
2021/01/21 09:01:14;0.00;0.00;0.62;0.00;0.00;0.62;1.50;1.00;;;21.10;24.70;;;;;;2262108;61;20366;-59
2021/01/21 09:03:59;0.00;0.00;0.62;0.00;0.00;0.62;1.53;0.83;;;21.10;24.70;;;;;;2261674;61;20362;-60
2021/01/21 09:06:44;0.00;0.00;0.62;0.00;0.00;0.62;2.10;1.10;;;21.10;24.70;;;;;;2261246;61;20378;-60
2021/01/21 09:09:31;0.00;0.00;0.62;0.00;0.00;0.62;1.60;0.77;;;21.20;24.70;;;;;;2261983;61;20366;-60
2021/01/21 09:12:19;0.00;0.00;0.62;0.00;0.00;0.62;1.20;0.80;;;21.20;24.70;;;;;;2261788;61;20366;-61
2021/01/21 09:15:06;0.00;0.00;0.62;0.00;0.00;0.62;1.80;0.80;;;21.20;24.70;;;;;;2261153;61;20467;-59
2021/01/21 09:18:04;0.00;0.00;0.62;0.00;0.00;0.62;1.50;0.73;;;21.20;24.70;;;;;;2261676;61;20522;-58
2021/01/21 09:20:50;0.00;0.00;0.62;0.00;0.00;0.62;1.50;0.80;;;21.20;25.10;;;;;;2261457;61;20428;-61
2021/01/21 09:23:35;0.00;0.00;0.62;0.00;0.00;0.62;1.30;0.80;;;21.30;24.80;;;;;;2262063;61;20394;-54
2021/01/21 09:26:24;0.00;0.00;0.62;0.00;0.00;0.62;1.20;0.80;;;21.30;24.80;;;;;;2261699;61;20370;-57
2021/01/21 09:29:09;0.00;0.00;0.62;0.00;0.00;0.62;2.33;0.90;;;21.30;24.80;;;;;;2261254;61;20409;-60
2021/01/21 09:31:54;0.00;0.00;0.62;0.00;0.00;0.62;1.30;0.80;;;21.40;24.80;;;;;;2261985;61;20393;-61
2021/01/21 09:34:38;0.00;0.00;0.62;0.00;0.00;0.62;1.90;0.80;;;21.40;24.80;;;;;;2261854;61;20409;-60
2021/01/21 09:37:24;0.00;0.00;0.62;0.00;0.00;0.62;1.30;0.80;;;21.40;24.80;;;;;;2261399;61;20378;-59
2021/01/21 09:40:13;0.00;0.00;0.62;0.00;0.00;0.62;1.53;0.90;;;21.40;24.80;;;;;;2261465;61;20373;-59
2021/01/21 09:42:59;0.00;0.00;0.62;0.00;0.00;0.62;1.63;0.90;;;21.50;24.80;;;;;;2261490;61;20371;-60
2021/01/21 09:45:44;0.00;0.00;0.62;0.00;0.00;0.62;1.40;0.90;;;21.50;24.80;;;;;;2261880;61;20359;-59
2021/01/21 09:48:29;0.00;0.00;0.62;0.00;0.00;0.62;1.40;0.70;;;21.50;24.80;;;;;;2261712;61;20562;-61
2021/01/21 09:51:14;0.00;0.00;0.62;0.00;0.00;0.62;1.90;0.77;;;21.50;24.80;;;;;;2261218;61;20438;-61
2021/01/21 09:53:58;0.00;0.00;0.62;0.00;0.00;0.62;1.50;0.80;;;21.50;24.80;;;;;;2261893;61;20682;-62
2021/01/21 09:56:44;0.00;0.00;0.62;0.00;0.00;0.62;1.50;0.90;;;21.60;24.90;;;;;;2261856;61;20418;-52
2021/01/21 09:59:28;0.00;0.00;0.62;0.00;0.00;0.62;9.23;2.50;;;21.60;25.40;;;;;;2261118;61;20589;-60
2021/01/21 10:02:14;0.00;0.00;0.62;0.00;0.00;0.62;3.77;2.10;;;21.60;24.90;;;;;;2261617;61;20363;-60
2021/01/21 10:04:59;0.00;0.00;0.62;0.00;0.00;0.62;2.90;2.13;;;21.70;25.00;;;;;;2261337;61;20359;-59
2021/01/21 10:07:44;0.00;0.00;0.62;0.00;0.00;0.62;2.37;1.70;;;21.70;25.00;;;;;;2261704;61;20437;-64
2021/01/21 10:10:31;0.00;0.00;0.62;0.00;0.00;0.62;2.80;1.87;;;21.70;24.90;;;;;;2261894;61;20390;-55
2021/01/21 10:13:17;0.00;0.00;0.62;0.00;0.00;0.62;3.00;2.30;;;21.70;24.90;;;;;;2261116;61;20761;-61
2021/01/21 10:16:02;0.00;0.00;0.62;0.00;0.00;0.62;4.00;2.03;;;21.70;24.90;;;;;;2261707;61;20362;-61
2021/01/21 10:18:46;0.00;0.00;0.62;0.00;0.00;0.62;2.50;1.33;;;21.70;24.90;;;;;;2261850;61;20362;-59
2021/01/21 10:21:31;0.00;0.00;0.62;0.00;0.00;0.62;2.00;1.60;;;21.80;25.00;;;;;;2261035;61;20350;-62
2021/01/21 10:24:16;0.00;0.00;0.62;0.00;0.00;0.62;3.13;1.70;;;21.80;25.00;;;;;;2261497;61;20686;-61
2021/01/21 10:27:01;0.00;0.00;0.62;0.00;0.00;0.62;2.53;1.60;;;21.80;25.00;;;;;;2261417;61;20385;-60
2021/01/21 10:29:47;0.00;0.00;0.62;0.00;0.00;0.62;2.83;1.80;;;21.80;25.00;;;;;;2260971;61;20362;-58
2021/01/21 10:32:32;0.00;0.00;0.62;0.00;0.00;0.62;2.40;1.63;;;21.80;25.00;;;;;;2261702;61;20363;-59
2021/01/21 10:35:19;0.00;0.00;0.62;0.00;0.00;0.62;2.23;1.67;;;21.90;25.10;;;;;;2260335;61;20394;-60
2021/01/21 10:38:04;0.00;0.00;0.62;0.00;0.00;0.62;2.10;1.37;;;21.90;25.00;;;;;;2261778;61;20429;-61
2021/01/21 10:40:48;0.00;0.00;0.62;0.00;0.00;0.62;2.63;1.60;;;21.90;25.00;;;;;;2261460;61;20573;-60
2021/01/21 10:43:33;0.00;0.00;0.62;0.00;0.00;0.62;2.03;1.30;;;21.90;25.50;;;;;;2260862;61;20714;-60
2021/01/21 10:46:20;0.00;0.00;0.62;0.00;0.00;0.62;1.93;1.40;;;21.90;25.00;;;;;;2261819;61;20378;-61
2021/01/21 10:49:04;0.00;0.00;0.62;0.00;0.00;0.62;1.70;1.30;;;22.00;25.00;;;;;;2261343;61;20370;-61
2021/01/21 10:51:49;0.00;0.00;0.62;0.00;0.00;0.62;2.57;1.50;;;22.00;25.10;;;;;;2261431;61;20393;-62
2021/01/21 10:54:33;0.00;0.00;0.62;0.00;0.00;0.62;2.77;2.17;;;22.00;25.10;;;;;;2261440;61;20482;-53
2021/01/21 10:57:18;0.00;0.00;0.62;0.00;0.00;0.62;3.50;2.33;;;22.00;25.20;;;;;;2260616;61;20385;-56
2021/01/21 11:00:04;0.00;0.00;0.62;0.00;0.00;0.62;3.23;1.97;;;22.00;25.20;;;;;;2261705;61;20358;-55
2021/01/21 11:02:50;0.00;0.00;0.62;0.00;0.00;0.62;3.07;2.67;;;22.10;25.30;;;;;;2261350;61;20366;-58
2021/01/21 11:05:34;0.00;0.00;0.62;0.00;0.00;0.62;2.40;2.17;;;22.10;25.30;;;;;;2260784;61;20479;-57
2021/01/21 11:08:19;0.00;0.00;0.62;0.00;0.00;0.62;2.93;2.20;;;22.20;25.40;;;;;;2261786;61;20653;-61
2021/01/21 11:11:04;0.00;0.00;0.62;0.00;0.00;0.62;2.37;1.73;;;22.20;25.40;;;;;;2260652;61;20398;-61